Aeroporto :
LOGIN :

Iscrizione | Disclaimer

   EN    FR    IT 

 










Sommario :    VFR   VFR Marginale   IFR   IFR Intensivo   IFR Molto Intensivo
Visibilità : 
Base nubi : 
>= 8 km
>= 3000ft
5 / 8 km
1000 / 3000 ft
1500m / 5 km
500 / 1000 ft
800 / 1500m
200 / 500 ft
< 800m
< 200 ft
Simboli :   Temporali  Nebbia  Neve Forte  Precipitazioni Forti  Vento > 20 kt
SIGMETs :   Varie  Temporali  Ghiacco  Turbolenza  Onda orograficha  Ceneri Vulcaniche






- Altitudine del aeroporto : 1375 ft
- Codice IATA : SCV


LRSV - Suceava Stefan cel Mare

ULTIMO METAR :
  • 140600Z AUTO 11009KT 4900 BR BKN005/// OVC007/// 11/10 Q1014

METARs OBSOLETI :
  • 140530Z AUTO 14009KT 6000 BKN006/// OVC008/// 12/10 Q1013
  • 140500Z AUTO 14011KT 6000 BKN006/// OVC008/// 12/10 Q1013
  • 140430Z AUTO 16009KT 6000 BKN006/// OVC008/// 12/11 Q1013
  • 140400Z 16012KT 8000 OVC008 12/11 Q1012
  • 140330Z 15015KT 7000 BKN009 12/10 Q1012

TAF TAF LRSV
Valido dal 14 a 06 ore il 14 a 15 ore UTC


140500Z 1406/1415 15012KT 5000 BR BKN005 OVC010
BECMG 1407/1409 9999 NSW SCT005 BKN010
TEMPO 1411/1415 5000 -RA BR SCT015 BKN025



MetMap, La meteo Aeronautica in un colpo d'occhio ! - Copyright ORBIFLY Dicembre 2007 - Disclaimer

ORBIFLY MET'MAP TEAM :

Programmazione e sviluppo : Alexandra Zaïnal
Concezione e sviluppo : Baudouin d'Aumeries
Co-Programmazione e sviluppo : Marc-Olivier Méhu
Supporto tecnico e logistico : Manuel Goepfert
Aiuto per la traduzione : Arnaldo La Scala

Contatto : metmap@orbifly.com




FONTI E CREDITI :

   NOAA